x

Canaveral East - 120nm East Of Cape Canaveral (41010) Wave Buoy

4:50pm - Wed 1st Jul 2015 All times are EDT. -4 hours from GMT.

  • Sig Wave height 3.0ft
  • Swell Direction
  • Peak Period 8s
  • Average Period 5s
  • Wind
    11mph, 13mph gusts
  • Sea Temp 85°f
  • Air Temp 83°f
  • Sea Pressure 1019.8mb
  • Canaveral East - 120nm East Of Cape Canaveral
  • Canaveral East - 120nm East Of Cape Canaveral

More Historic Weather Station data

Upgrade to MSW Pro to gain access to the past 30 days of data for over 8000 Wavebouys and Weather Stations around the globe.

Join Pro

Comparision Forecast

View Surf forecast
   
Wed 07/01 4:50pm 3ft 8s 5s 11 13 mph 1019.8mb 85f 83f
4:20pm  -   -   -  11 13 mph 1020.1mb 85f 83f
3:50pm 3.5ft 8s 5s 11 16 mph 1020.2mb 85f 83f
3:20pm  -   -   -  11 13 mph 1020.5mb 85f 83f
2:50pm 3.5ft 8s 5s 13 16 mph 1020.7mb 85f 83f
2:20pm  -   -   -  11 13 mph 1020.8mb 84f 83f
1:50pm 3.5ft 4s 5s 13 16 mph 1021mb 84f 83f
1:20pm  -   -   -  13 16 mph 1021.1mb 84f 83f
12:50pm 3.5ft 5s 4s 16 18 mph 1021.1mb 84f 83f
12:20pm  -   -   -  16 18 mph 1021.2mb 84f 83f
11:50am 3.5ft 8s 4s 13 16 mph 1021.2mb 84f 83f
11:20am  -   -   -  16 18 mph 1021.3mb 84f 83f
10:50am 3.5ft 9s 4s 16 18 mph 1021.1mb 84f 83f
10:20am  -   -   -  16 20 mph 1021.1mb 84f 83f
9:50am 3.5ft 4s 4s 16 18 mph 1021.2mb 84f 83f
9:20am  -   -   -  16 18 mph 1021.3mb 84f 83f
8:50am 3.5ft 5s 4s 16 18 mph 1021.2mb 84f 83f
8:20am  -   -   -  16 18 mph 1021.1mb 84f 83f
7:50am 3.5ft 4s 4s 16 20 mph 1020.7mb 84f 82f
7:20am  -   -   -  16 18 mph 1020.3mb 84f 82f
6:50am 3.5ft 4s 4s 16 18 mph 1020.1mb 84f 82f
6:20am  -   -   -  18 20 mph 1019.8mb 84f 82f
5:50am 3.5ft 5s 4s 18 22 mph 1019.4mb 84f 82f
5:20am  -   -   -  18 20 mph 1019.3mb 84f 82f
4:50am 3.5ft 5s 4s 16 20 mph 1019.7mb 84f 82f
4:20am  -   -   -  18 20 mph 1019.7mb 84f 81f
3:50am 3.5ft 4s 4s 16 20 mph 1019.8mb 84f 80f
3:20am  -   -   -  16 20 mph 1019.7mb 84f 81f
2:50am 3.5ft 8s 4s 18 22 mph 1019.4mb 84f 80f
2:20am  -   -   -  22 27 mph 1019.5mb 84f 81f
1:50am 3.5ft 8s 5s 20 25 mph 1019.6mb 84f 81f
1:20am  -   -   -  13 18 mph 1020mb 84f 80f
12:50am 4ft 8s 5s 16 18 mph 1021mb 84f 80f
12:20am  -   -   -  13 16 mph 1020.6mb 84f 81f
Tue 06/30 11:50pm 3.5ft 8s 5s 4 7 mph 1020.6mb 84f 80f
11:20pm  -   -   -  7 9 mph 1020.9mb 84f 80f
10:50pm 4.5ft 8s 5s 9 11 mph 1020.8mb 84f 78f
10:20pm  -   -   -  13 16 mph 1020.6mb 84f 77f
9:50pm 4ft 8s 5s 18 22 mph 1020.6mb 84f 74f
9:20pm  -   -   -  27 38 mph 1020.7mb 84f 80f
8:50pm 3.5ft 8s 6s 13 16 mph 1019.6mb 84f 83f
8:20pm  -   -   -  13 16 mph 1019.4mb 84f 83f
7:50pm 3.5ft 7s 5s 11 13 mph 1019.3mb 84f 83f
6:50pm 3.5ft 8s 5s 11 13 mph 1018.8mb 84f 83f
6:20pm  -   -   -  11
mph
1018.9mb 84f 83f
5:50pm 3.5ft 8s 5s 9 11 mph 1018.8mb 84f 83f
5:20pm  -   -   -  9 11 mph 1019mb 84f 83f
4:50pm 3.5ft 5s 5s 11 13 mph 1018.9mb 84f 83f
4:20pm  -   -   -  11 13 mph 1018.8mb 84f 83f
3:50pm 3.5ft 5s 5s 9 11 mph 1018.7mb 84f 83f
3:20pm  -   -   -  9 11 mph 1019mb 84f 83f
2:50pm 4ft 5s 5s 11 13 mph 1019.3mb 84f 83f
2:20pm  -   -   -  11 13 mph 1019.7mb 84f 83f
1:50pm 4.5ft 5s 5s 13 16 mph 1020.1mb 84f 83f
1:20pm  -   -   -  13 16 mph 1020.2mb 84f 83f
12:50pm 4.5ft 5s 5s 16 18 mph 1020mb 84f 83f
12:20pm  -   -   -  16 18 mph 1020mb 84f 83f
11:50am 4.5ft 6s 5s 18 22 mph 1020mb 84f 83f
11:20am  -   -   -  18 20 mph 1019.9mb 84f 83f
10:50am 4.5ft 6s 5s 18 22 mph 1020.3mb 84f 83f
10:20am  -   -   -  18 22 mph 1020.2mb 84f 83f
9:50am 5ft 5s 5s 20 25 mph 1019.9mb 84f 83f
9:20am  -   -   -  20 22 mph 1019.6mb 84f 83f
8:50am 4.5ft 5s 4s 20 22 mph 1019.5mb 84f 82f
8:20am  -   -   -  20 25 mph 1019.4mb 84f 82f
7:50am 4.5ft 5s 4s 20 22 mph 1019mb 84f 82f
7:20am  -   -   -  20 25 mph 1018.7mb 84f 82f
6:50am 4ft 5s 4s 22 27 mph 1018.4mb 84f 83f
6:20am  -   -   -  20 25 mph 1018.2mb 84f 83f
5:50am 3.5ft 5s 4s 20 22 mph 1017.8mb 84f 83f
5:20am  -   -   -  18 20 mph 1017.7mb 84f 83f
4:50am 3.5ft 5s 4s 16 18 mph 1017.8mb 84f 82f
4:20am  -   -   -  18 20 mph 1017.8mb 84f 82f
3:50am 3.5ft 5s 4s 16 20 mph 1017.7mb 84f 82f
3:20am  -   -   -  16 18 mph 1017.6mb 84f 82f
2:50am 3ft 4s 4s 16 20 mph 1017.4mb 84f 82f
2:20am  -   -   -  16 18 mph 1017.6mb 84f 81f
1:50am 3ft 5s 4s 13 16 mph 1018mb 84f 81f
1:20am  -   -   -  16 18 mph 1018.2mb 84f 82f
12:50am 3.5ft 5s 5s 13 16 mph 1018.6mb 84f 82f
12:20am  -   -   -  13 18 mph 1018.6mb 84f 82f
Mon 06/29 11:50pm 4ft 5s 5s 13 16 mph 1018.5mb 84f 81f
11:20pm  -   -   -  11 13 mph 1018.3mb 84f 81f
10:50pm 3.5ft 5s 5s 11 13 mph 1018.1mb 84f 81f
10:20pm  -   -   -  11 13 mph 1018.2mb 84f 81f
9:50pm 4.5ft 5s 5s 13 16 mph 1018.3mb 84f 81f
9:20pm  -   -   -  16 18 mph 1018.1mb 84f 81f
8:50pm 4ft 5s 4s 16 20 mph 1017.6mb 84f 81f
8:20pm  -   -   -  16 20 mph 1017.1mb 84f 80f
7:50pm 3.5ft 4s 4s 18 20 mph 1016.9mb 84f 79f
7:20pm  -   -   -  22 27 mph 1017.2mb 84f 80f
6:50pm 3.5ft 8s 5s 20 25 mph 1017.4mb 84f 81f
6:20pm  -   -   -  18 22 mph 1017.7mb 85f 83f
5:50pm 3ft 8s 5s 16
mph
1017.8mb 85f 84f
5:20pm  -   -   -  16 18 mph 1017.6mb 85f 84f
4:50pm 3ft 8s 5s 13 16 mph 1017.8mb 85f 84f
4:20pm  -   -   -  13 16 mph 1017.9mb 85f 84f
3:50pm 3.5ft 5s 5s 13 16 mph 1017.8mb 85f 84f
3:20pm  -   -   -  11 13 mph 1017.7mb 85f 84f
2:50pm 3.5ft 8s 5s 11 13 mph 1018mb 85f 84f
2:20pm  -   -   -  11 16 mph 1018.1mb 85f 84f
1:50pm 3.5ft 5s 5s 11 13 mph 1018.5mb 85f 84f
1:20pm  -   -   -  11 16 mph 1018.8mb 85f 84f
12:50pm 3.5ft 6s 5s 11 13 mph 1018.8mb 85f 84f
12:20pm  -   -   -  11 16 mph 1018.6mb 85f 84f
11:50am 3.5ft 5s 5s 13 16 mph 1018.4mb 84f 84f
11:20am  -   -   -  13 16 mph 1018.2mb 84f 84f
10:50am 3.5ft 5s 5s 13 16 mph 1018.3mb 84f 84f
10:20am  -   -   -  11 13 mph 1018.4mb 84f 84f
9:50am 4ft 6s 5s 11 16 mph 1018.1mb 84f 84f
9:20am  -   -   -  13 16 mph 1018mb 84f 84f
8:50am 4ft 5s 5s 13 16 mph 1017.9mb 84f 84f
8:20am  -   -   -  13 16 mph 1017.6mb 84f 84f
7:50am 4.5ft 5s 5s 16 18 mph 1017.3mb 84f 84f
7:20am  -   -   -  16 18 mph 1016.8mb 84f 84f
6:50am 4ft 5s 4s 18 20 mph 1016.7mb 84f 84f
6:20am  -   -   -  18 20 mph 1016.3mb 84f 83f
5:50am 4.5ft 5s 5s 18 22 mph 1016.1mb 84f 83f
5:20am  -   -   -  20 25 mph 1015.9mb 84f 83f
4:50am 4.5ft 5s 4s 20 22 mph 1015.8mb 84f 83f
4:20am  -   -   -  22 27 mph 1015.6mb 84f 82f
3:50am 4ft 4s 4s 20 25 mph 1015.9mb 84f 82f
3:20am  -   -   -  22 29 mph 1015.8mb 84f 84f
2:50am 4ft 5s 4s 20 22 mph 1016.2mb 84f 84f
2:20am  -   -   -  20 22 mph 1016.8mb 84f 83f
1:50am 4ft 8s 5s 20 25 mph 1017mb 84f 84f
1:20am  -   -   -  20 22 mph 1017.2mb 84f 84f
12:50am 3.5ft 8s 5s 18 22 mph 1017.6mb 84f 84f
12:20am  -   -   -  18 22 mph 1018mb 84f 83f
Sun 06/28 11:50pm 4ft 5s 4s 18 22 mph 1018.2mb 84f 83f
11:20pm  -   -   -  18 20 mph 1018.3mb 84f 84f
10:50pm 3.5ft 5s 5s 18 22 mph 1017.9mb 84f 84f
10:20pm  -   -   -  20 22 mph 1017.5mb 84f 84f
9:50pm 3.5ft 8s 4s 18 22 mph 1017.6mb 84f 84f
9:20pm  -   -   -  16 20 mph 1017.6mb 84f 84f
8:50pm 3.5ft 8s 5s 18 20 mph 1017.4mb 84f 84f
8:20pm  -   -   -  18 20 mph 1017.4mb 84f 84f
7:50pm 3.5ft 5s 5s 18 20 mph 1017.1mb 85f 84f
7:20pm  -   -   -  18 20 mph 1016.9mb 85f 84f
6:50pm 3.5ft 8s 5s 16 18 mph 1016.8mb 85f 84f
6:20pm  -   -   -  16 18 mph 1016.4mb 85f 84f
5:50pm 3.5ft 8s 5s 13 18 mph 1016.4mb 85f 84f
5:20pm  -   -   -  13 16 mph 1016.8mb 85f 84f
4:50pm 3ft 8s 5s 13 16 mph 1017mb 85f 84f
4:20pm  -   -   -  13 16 mph 1017.3mb 85f 84f
3:50pm 3.5ft 5s 5s 13 16 mph 1017.4mb 85f 84f
3:20pm  -   -   -  13 16 mph 1017.3mb 85f 84f
2:50pm 3.5ft 8s 5s 13 16 mph 1017.6mb 85f 84f
2:20pm  -   -   -  16 18 mph 1017.4mb 85f 84f
1:50pm 3.5ft 5s 5s 16 18 mph 1017.6mb 85f 84f
1:20pm  -   -   -  9 11 mph 1017.9mb 85f 83f
12:50pm 3.5ft 8s 5s 11 13 mph 1018mb 85f 83f
12:20pm  -   -   -  18 22 mph 1017.8mb 85f 82f
11:50am 3.5ft 5s 4s 13 16 mph 1017.8mb 85f 84f
11:20am  -   -   -  13 16 mph 1017.9mb 85f 83f
10:50am 3.5ft 6s 5s 16 18 mph 1017.8mb 85f 83f
10:20am  -   -   -  13 18 mph 1017.6mb 85f 83f
9:50am 4ft 5s 5s 13 16 mph 1017.5mb 84f 83f
9:20am  -   -   -  13 16 mph 1017.7mb 84f 84f
8:50am 4.5ft 5s 5s 13 18 mph 1017.5mb 84f 83f
8:20am  -   -   -  16 20 mph 1017.2mb 84f 84f
7:50am 4.5ft 6s 5s 18 20 mph 1016.7mb 84f 84f
7:20am  -   -   -  18 20 mph 1016.3mb 84f 84f
6:50am 4.5ft 6s 5s 18 22 mph 1016.2mb 84f 84f
6:20am  -   -   -  20 22 mph 1015.8mb 84f 84f
5:50am 4.5ft 5s 5s 20 22 mph 1015.7mb 84f 84f
5:20am  -   -   -  20 22 mph 1015.4mb 84f 84f
4:50am 4.5ft 5s 5s 20 25 mph 1015.3mb 84f 84f
4:20am  -   -   -  20 22 mph 1015.2mb 84f 84f
3:50am 4.5ft 5s 5s 20 25 mph 1015.5mb 84f 84f
3:20am  -   -   -  20 25 mph 1015.9mb 84f 84f
2:50am 4.5ft 4s 5s 20 22 mph 1016.3mb 84f 84f
2:20am  -   -   -  20 25 mph 1016.6mb 84f 84f
1:50am 4.5ft 5s 5s 20 25 mph 1016.8mb 84f 84f
1:20am  -   -   -  22 27 mph 1016.9mb 84f 84f
12:50am 4.5ft 5s 5s 20 25 mph 1017.3mb 84f 84f
12:20am  -   -   -  20 25 mph 1017.1mb 85f 83f
Sat 06/27 11:50pm 4.5ft 5s 5s 20 25 mph 1017.1mb 85f 83f
11:20pm  -   -   -  20 25 mph 1017mb 85f 83f
10:50pm 4ft 5s 4s 20 25 mph 1017.1mb 85f 83f
10:20pm  -   -   -  20 25 mph 1017.1mb 85f 83f